createdAt,value
2022-11-17T00:02:07.521Z,9.40
2022-11-17T00:04:35.317Z,9.40
2022-11-17T00:07:03.109Z,9.40
2022-11-17T00:09:30.821Z,9.30
2022-11-17T00:12:22.342Z,9.40
2022-11-17T00:14:50.528Z,9.30
2022-11-17T00:17:18.256Z,9.30
2022-11-17T00:20:03.317Z,9.30
2022-11-17T00:22:32.001Z,9.30
2022-11-17T00:24:59.885Z,9.30
2022-11-17T00:27:29.030Z,9.30
2022-11-17T00:29:56.905Z,9.30
2022-11-17T00:32:42.224Z,9.30
2022-11-17T00:35:10.041Z,9.30
2022-11-17T00:38:00.259Z,9.30
2022-11-17T00:40:27.979Z,9.30
2022-11-17T00:42:57.025Z,9.30
2022-11-17T00:45:24.759Z,9.30
2022-11-17T00:47:52.480Z,9.30
2022-11-17T00:50:20.301Z,9.30
2022-11-17T00:52:48.006Z,9.30
2022-11-17T00:55:15.854Z,9.30
2022-11-17T00:57:43.622Z,9.30
2022-11-17T01:00:13.700Z,9.30
2022-11-17T01:02:41.417Z,9.30
2022-11-17T01:05:09.656Z,9.30
2022-11-17T01:07:37.434Z,9.30
2022-11-17T01:10:05.734Z,9.30
2022-11-17T01:12:33.429Z,9.30
2022-11-17T01:15:01.180Z,9.30
2022-11-17T01:17:30.206Z,9.30
2022-11-17T01:19:57.942Z,9.40
2022-11-17T01:22:25.652Z,9.30
2022-11-17T01:24:53.359Z,9.30
2022-11-17T01:27:21.077Z,9.40
2022-11-17T01:29:48.999Z,9.40
2022-11-17T01:32:16.740Z,9.40
2022-11-17T01:34:45.814Z,9.40
2022-11-17T01:37:22.685Z,9.40
2022-11-17T01:39:51.087Z,9.30
2022-11-17T01:42:21.330Z,9.40
2022-11-17T01:44:58.945Z,9.30
2022-11-17T01:47:43.703Z,9.30
2022-11-17T01:50:28.905Z,9.30
2022-11-17T01:52:59.520Z,9.30
2022-11-17T01:55:33.083Z,9.30
2022-11-17T01:58:04.141Z,9.30
2022-11-17T02:00:32.025Z,9.30
2022-11-17T02:03:00.395Z,9.30
2022-11-17T02:05:40.757Z,9.30
2022-11-17T02:08:09.620Z,9.30
2022-11-17T02:10:38.032Z,9.30
2022-11-17T02:13:06.444Z,9.30
2022-11-17T02:15:34.207Z,9.30
2022-11-17T02:18:02.419Z,9.30
2022-11-17T02:20:56.479Z,9.20
2022-11-17T02:24:01.395Z,9.20
2022-11-17T02:27:01.769Z,9.20
2022-11-17T02:29:37.055Z,9.20
2022-11-17T02:32:10.412Z,9.20
2022-11-17T02:34:46.663Z,9.20
2022-11-17T02:37:22.280Z,9.20
2022-11-17T02:39:57.389Z,9.20
2022-11-17T02:42:44.683Z,9.20
2022-11-17T02:45:18.609Z,9.20
2022-11-17T02:47:48.932Z,9.20
2022-11-17T02:50:18.422Z,9.20
2022-11-17T02:52:46.307Z,9.20
2022-11-17T02:55:14.061Z,9.20
2022-11-17T02:57:42.596Z,9.20
2022-11-17T03:00:15.878Z,9.20
2022-11-17T03:03:20.393Z,9.20
2022-11-17T03:05:58.513Z,9.20
2022-11-17T03:08:36.770Z,9.20
2022-11-17T03:11:06.348Z,9.20
2022-11-17T03:13:43.906Z,9.20
2022-11-17T03:16:24.229Z,9.20
2022-11-17T03:19:02.862Z,9.20
2022-11-17T03:21:35.814Z,9.20
2022-11-17T03:24:11.544Z,9.20
2022-11-17T03:26:43.936Z,9.20
2022-11-17T03:29:15.291Z,9.20
2022-11-17T03:31:46.673Z,9.20
2022-11-17T03:34:17.721Z,9.20
2022-11-17T03:36:52.580Z,9.20
2022-11-17T03:39:24.581Z,9.20
2022-11-17T03:41:58.877Z,9.20
2022-11-17T03:44:29.648Z,9.20
2022-11-17T03:47:03.015Z,9.20
2022-11-17T03:49:37.873Z,9.20
2022-11-17T03:52:05.845Z,9.20
2022-11-17T03:54:33.957Z,9.20
2022-11-17T03:57:06.820Z,9.20
2022-11-17T03:59:42.984Z,9.20
2022-11-17T04:02:14.991Z,9.20
2022-11-17T04:05:01.100Z,9.20
2022-11-17T04:07:28.879Z,9.20
2022-11-17T04:09:56.625Z,9.20
2022-11-17T04:12:42.045Z,9.20
2022-11-17T04:15:29.167Z,9.20
2022-11-17T04:17:58.563Z,9.20
2022-11-17T04:20:26.862Z,9.20
2022-11-17T04:23:07.823Z,9.20
2022-11-17T04:25:53.710Z,9.20
2022-11-17T04:28:40.424Z,9.20
2022-11-17T04:31:11.444Z,9.20
2022-11-17T04:33:42.254Z,9.20
2022-11-17T04:36:10.787Z,9.20
2022-11-17T04:38:42.526Z,9.20
2022-11-17T04:41:29.422Z,9.20
2022-11-17T04:43:57.413Z,9.20
2022-11-17T04:46:26.635Z,9.30
2022-11-17T04:48:56.235Z,9.20
2022-11-17T04:51:24.949Z,9.30
2022-11-17T04:53:53.328Z,9.20
2022-11-17T04:56:22.509Z,9.20
2022-11-17T04:58:50.947Z,9.20
2022-11-17T05:01:19.776Z,9.30
2022-11-17T05:03:49.434Z,9.30
2022-11-17T05:06:21.534Z,9.30
2022-11-17T05:08:50.296Z,9.30
2022-11-17T05:11:36.771Z,9.30
2022-11-17T05:14:04.544Z,9.30
2022-11-17T05:16:49.164Z,9.30
2022-11-17T05:19:20.058Z,9.30
2022-11-17T05:21:49.838Z,9.30
2022-11-17T05:24:17.258Z,9.30
2022-11-17T05:26:46.532Z,9.30
2022-11-17T05:29:15.997Z,9.30
2022-11-17T05:31:44.305Z,9.30
2022-11-17T05:34:14.007Z,9.30
2022-11-17T05:36:42.604Z,9.30
2022-11-17T05:39:11.916Z,9.30
2022-11-17T05:41:39.687Z,9.30
2022-11-17T05:44:07.500Z,9.30
2022-11-17T05:46:35.317Z,9.30
2022-11-17T05:49:03.803Z,9.30
2022-11-17T05:51:32.310Z,9.30
2022-11-17T05:54:00.128Z,9.40
2022-11-17T05:56:40.858Z,9.30
2022-11-17T05:59:16.323Z,9.30
2022-11-17T06:01:49.985Z,9.30
2022-11-17T06:04:20.215Z,9.30
2022-11-17T06:06:49.478Z,9.30
2022-11-17T06:09:17.589Z,9.30
2022-11-17T06:11:46.760Z,9.30
2022-11-17T06:14:14.515Z,9.30
2022-11-17T06:16:46.958Z,9.30
2022-11-17T06:19:17.672Z,9.30
2022-11-17T06:22:10.500Z,9.30
2022-11-17T06:24:34.277Z,9.30
2022-11-17T06:27:03.511Z,9.30
2022-11-17T06:29:31.634Z,9.30
2022-11-17T06:31:59.942Z,9.30
2022-11-17T06:34:28.950Z,9.30
2022-11-17T06:36:56.671Z,9.30
2022-11-17T06:39:24.412Z,9.30
2022-11-17T06:41:52.089Z,9.30
2022-11-17T06:44:21.152Z,9.30
2022-11-17T06:46:49.421Z,9.30
2022-11-17T06:49:17.470Z,9.30
2022-11-17T06:51:45.759Z,9.30
2022-11-17T06:54:14.604Z,9.30
2022-11-17T06:56:43.548Z,9.30
2022-11-17T06:59:11.249Z,9.30
2022-11-17T07:01:40.333Z,9.30
2022-11-17T07:04:08.820Z,9.30
2022-11-17T07:06:37.404Z,9.30
2022-11-17T07:09:05.277Z,9.30
2022-11-17T07:11:35.629Z,9.30
2022-11-17T07:14:03.424Z,9.30
2022-11-17T07:16:32.427Z,9.30
2022-11-17T07:19:03.536Z,9.30
2022-11-17T07:21:31.387Z,9.30
2022-11-17T07:23:59.176Z,9.30
2022-11-17T07:26:26.921Z,9.30
2022-11-17T07:28:54.661Z,9.30
2022-11-17T07:31:22.671Z,9.30
2022-11-17T07:33:50.938Z,9.30
2022-11-17T07:36:20.088Z,9.30
2022-11-17T07:38:47.784Z,9.30
2022-11-17T07:41:15.743Z,9.30
2022-11-17T07:43:43.504Z,9.30
2022-11-17T07:46:13.519Z,9.30
2022-11-17T07:48:41.900Z,9.30
2022-11-17T07:51:09.704Z,9.30
2022-11-17T07:53:38.766Z,9.30
2022-11-17T07:56:08.514Z,9.30
2022-11-17T07:58:36.989Z,9.30
2022-11-17T08:01:06.459Z,9.30
2022-11-17T08:03:34.322Z,9.30
2022-11-17T08:06:03.360Z,9.30
2022-11-17T08:08:31.085Z,9.30
2022-11-17T08:11:02.954Z,9.30
2022-11-17T08:13:30.904Z,9.30
2022-11-17T08:15:59.911Z,9.30
2022-11-17T08:18:28.041Z,9.30
2022-11-17T08:21:03.225Z,9.30
2022-11-17T08:23:30.950Z,9.30
2022-11-17T08:25:58.824Z,9.30
2022-11-17T08:28:27.937Z,9.30
2022-11-17T08:30:55.690Z,9.30
2022-11-17T08:33:23.482Z,9.30
2022-11-17T08:35:51.350Z,9.30
2022-11-17T08:38:19.185Z,9.30
2022-11-17T08:40:47.625Z,9.30
2022-11-17T08:43:15.360Z,9.30
2022-11-17T08:45:44.528Z,9.30
2022-11-17T08:48:12.279Z,9.30
2022-11-17T08:50:40.110Z,9.30
2022-11-17T08:53:07.807Z,9.30
2022-11-17T08:55:41.285Z,9.40
2022-11-17T08:58:09.412Z,9.40
2022-11-17T09:00:37.279Z,9.40
2022-11-17T09:03:08.650Z,9.40
2022-11-17T09:05:39.831Z,9.40
2022-11-17T09:08:38.023Z,9.40
2022-11-17T09:10:55.928Z,9.50
2022-11-17T09:13:23.661Z,9.50
2022-11-17T09:15:51.471Z,9.50
2022-11-17T09:18:20.536Z,9.50
2022-11-17T09:20:48.344Z,9.60
2022-11-17T09:23:16.104Z,9.60
2022-11-17T09:25:43.887Z,9.60
2022-11-17T09:28:11.681Z,9.60
2022-11-17T09:30:39.428Z,9.60
2022-11-17T09:33:07.140Z,9.70
2022-11-17T09:35:36.199Z,9.70
2022-11-17T09:38:03.960Z,9.70
2022-11-17T09:40:37.467Z,9.70
2022-11-17T09:43:09.807Z,9.80
2022-11-17T09:45:40.748Z,9.80
2022-11-17T09:48:39.640Z,9.90
2022-11-17T09:51:05.302Z,9.90
2022-11-17T09:53:41.583Z,10.00
2022-11-17T09:56:12.187Z,10.00
2022-11-17T09:58:45.417Z,10.00
2022-11-17T10:01:14.983Z,10.00
2022-11-17T10:03:46.325Z,10.00
2022-11-17T10:06:19.103Z,10.10
2022-11-17T10:08:58.091Z,10.10
2022-11-17T10:11:32.640Z,10.10
2022-11-17T10:14:04.384Z,10.20
2022-11-17T10:16:32.332Z,10.20
2022-11-17T10:19:02.406Z,10.30
2022-11-17T10:21:32.283Z,10.30
2022-11-17T10:24:00.715Z,10.30
2022-11-17T10:26:28.665Z,10.40
2022-11-17T10:29:09.986Z,10.40
2022-11-17T10:31:43.951Z,10.40
2022-11-17T10:34:13.687Z,10.50
2022-11-17T10:36:49.205Z,10.40
2022-11-17T10:39:37.229Z,10.40
2022-11-17T10:42:23.315Z,10.40
2022-11-17T10:44:53.761Z,10.40
2022-11-17T10:47:34.135Z,10.40
2022-11-17T10:50:22.009Z,10.40
2022-11-17T10:52:52.698Z,10.30
2022-11-17T10:55:26.143Z,10.30
2022-11-17T10:57:57.301Z,10.30
2022-11-17T11:00:28.580Z,10.30
2022-11-17T11:03:08.797Z,10.30
2022-11-17T11:05:36.603Z,10.30
2022-11-17T11:08:19.375Z,10.30
2022-11-17T11:10:51.173Z,10.30
2022-11-17T11:13:27.169Z,10.30
2022-11-17T11:15:54.985Z,10.30
2022-11-17T11:18:22.898Z,10.40
2022-11-17T11:20:59.349Z,10.40
2022-11-17T11:23:38.211Z,10.50
2022-11-17T11:26:20.021Z,10.50
2022-11-17T11:29:04.614Z,10.50
2022-11-17T11:31:40.585Z,10.60
2022-11-17T11:34:23.740Z,10.60
2022-11-17T11:36:57.440Z,10.60
2022-11-17T11:39:39.922Z,10.70
2022-11-17T11:42:45.090Z,10.70
2022-11-17T11:45:24.059Z,10.70
2022-11-17T11:48:18.072Z,10.70
2022-11-17T11:50:57.983Z,10.70
2022-11-17T11:53:31.753Z,10.70
2022-11-17T11:56:16.229Z,10.80
2022-11-17T11:58:49.004Z,10.80
2022-11-17T12:01:20.295Z,10.80
2022-11-17T12:03:53.453Z,10.80
2022-11-17T12:06:42.359Z,10.80
2022-11-17T12:09:35.616Z,10.80
2022-11-17T12:12:09.427Z,10.80
2022-11-17T12:14:38.696Z,10.80
2022-11-17T12:17:17.071Z,10.80
2022-11-17T12:20:09.373Z,10.80
2022-11-17T12:23:02.113Z,10.80
2022-11-17T12:25:32.577Z,10.80
2022-11-17T12:28:27.693Z,10.80
2022-11-17T12:30:57.749Z,10.70
2022-11-17T12:34:04.434Z,10.70
2022-11-17T12:36:33.239Z,10.70
2022-11-17T12:39:02.007Z,10.80
2022-11-17T12:42:08.054Z,10.80
2022-11-17T12:45:07.941Z,10.80
2022-11-17T12:47:37.377Z,10.90
2022-11-17T12:50:38.976Z,10.80
2022-11-17T12:53:20.743Z,10.90
2022-11-17T12:56:03.160Z,10.90
2022-11-17T12:58:36.822Z,10.90
2022-11-17T13:01:14.619Z,10.90
2022-11-17T13:03:50.181Z,10.90
2022-11-17T13:06:35.968Z,10.90
2022-11-17T13:09:07.147Z,11.00
2022-11-17T13:11:35.469Z,11.00
2022-11-17T13:14:10.881Z,11.00
2022-11-17T13:16:46.149Z,11.00
2022-11-17T13:19:35.950Z,11.10
2022-11-17T13:22:05.865Z,11.10
2022-11-17T13:24:35.996Z,11.10
2022-11-17T13:27:07.240Z,11.10
2022-11-17T13:29:35.309Z,11.20
2022-11-17T13:32:13.317Z,11.10
2022-11-17T13:34:50.729Z,11.10
2022-11-17T13:37:20.478Z,11.20
2022-11-17T13:40:00.011Z,11.20
2022-11-17T13:42:31.125Z,11.20
2022-11-17T13:45:01.594Z,11.20
2022-11-17T13:47:45.395Z,11.20
2022-11-17T13:50:35.711Z,11.20
2022-11-17T13:53:06.348Z,11.20
2022-11-17T13:55:35.141Z,11.20
2022-11-17T13:58:04.829Z,11.20
2022-11-17T14:00:33.269Z,11.30
2022-11-17T14:03:03.978Z,11.30
2022-11-17T14:05:32.814Z,11.30
2022-11-17T14:08:13.007Z,11.30
2022-11-17T14:10:41.393Z,11.40
2022-11-17T14:13:29.789Z,11.40
2022-11-17T14:16:00.586Z,11.40
2022-11-17T14:18:34.098Z,11.40
2022-11-17T14:21:10.188Z,11.30
2022-11-17T14:23:38.170Z,11.30
2022-11-17T14:26:06.552Z,11.30
2022-11-17T14:28:34.332Z,11.30
2022-11-17T14:31:02.030Z,11.30
2022-11-17T14:33:32.124Z,11.30
2022-11-17T14:36:00.577Z,11.30
2022-11-17T14:38:28.530Z,11.20
2022-11-17T14:40:56.318Z,11.20
2022-11-17T14:43:24.463Z,11.20
2022-11-17T14:45:52.214Z,11.20
2022-11-17T14:48:20.312Z,11.20
2022-11-17T14:50:55.836Z,11.20
2022-11-17T14:53:23.567Z,11.20
2022-11-17T14:55:51.366Z,11.10
2022-11-17T14:58:19.858Z,11.10
2022-11-17T15:00:47.601Z,11.10
2022-11-17T15:03:15.541Z,11.10
2022-11-17T15:05:47.091Z,11.10
2022-11-17T15:08:16.149Z,11.00
2022-11-17T15:10:45.292Z,11.00
2022-11-17T15:13:13.103Z,11.00
2022-11-17T15:15:41.078Z,11.00
2022-11-17T15:18:11.583Z,10.90
2022-11-17T15:20:39.440Z,10.90
2022-11-17T15:23:08.068Z,10.90
2022-11-17T15:25:38.721Z,10.90
2022-11-17T15:28:06.704Z,10.90
2022-11-17T15:30:34.478Z,10.90
2022-11-17T15:33:02.757Z,10.80
2022-11-17T15:35:30.528Z,10.80
2022-11-17T15:37:58.270Z,10.80
2022-11-17T15:40:26.010Z,10.80
2022-11-17T15:42:55.401Z,10.80
2022-11-17T15:45:23.246Z,10.80
2022-11-17T15:47:50.983Z,10.80
2022-11-17T15:50:19.511Z,10.70
2022-11-17T15:53:04.595Z,10.70
2022-11-17T15:55:34.964Z,10.70
2022-11-17T15:58:04.043Z,10.70
2022-11-17T16:00:34.162Z,10.70
2022-11-17T16:03:01.924Z,10.60
2022-11-17T16:05:29.621Z,10.60
2022-11-17T16:07:57.373Z,10.60
2022-11-17T16:10:25.104Z,10.60
2022-11-17T16:12:52.860Z,10.60
2022-11-17T16:15:21.921Z,10.50
2022-11-17T16:17:49.641Z,10.50
2022-11-17T16:20:18.376Z,10.50
2022-11-17T16:22:46.205Z,10.50
2022-11-17T16:25:14.054Z,10.50
2022-11-17T16:27:41.801Z,10.50
2022-11-17T16:30:10.162Z,10.50
2022-11-17T16:32:39.259Z,10.50
2022-11-17T16:35:07.474Z,10.40
2022-11-17T16:37:35.196Z,10.40
2022-11-17T16:40:04.447Z,10.40
2022-11-17T16:42:32.595Z,10.40
2022-11-17T16:45:00.868Z,10.40
2022-11-17T16:47:28.558Z,10.30
2022-11-17T16:49:57.665Z,10.30
2022-11-17T16:52:25.456Z,10.30
2022-11-17T16:54:54.069Z,10.30
2022-11-17T16:57:21.785Z,10.30
2022-11-17T16:59:49.475Z,10.20
2022-11-17T17:02:17.193Z,10.20
2022-11-17T17:04:44.878Z,10.20
2022-11-17T17:07:15.256Z,10.20
2022-11-17T17:09:42.964Z,10.10
2022-11-17T17:12:10.708Z,10.10
2022-11-17T17:14:38.393Z,10.10
2022-11-17T17:17:06.107Z,10.10
2022-11-17T17:19:33.805Z,10.00
2022-11-17T17:22:01.592Z,10.00
2022-11-17T17:24:30.805Z,10.00
2022-11-17T17:26:58.579Z,10.00
2022-11-17T17:29:26.328Z,10.00
2022-11-17T17:31:54.043Z,9.90
2022-11-17T17:34:21.925Z,10.00
2022-11-17T17:36:49.600Z,9.90
2022-11-17T17:39:17.801Z,9.90
2022-11-17T17:41:47.076Z,9.90
2022-11-17T17:44:16.612Z,9.90
2022-11-17T17:46:45.033Z,9.80
2022-11-17T17:49:13.143Z,9.80
2022-11-17T17:51:43.921Z,9.80
2022-11-17T17:54:15.475Z,9.70
2022-11-17T17:56:43.422Z,9.70
2022-11-17T17:59:13.176Z,9.70
2022-11-17T18:01:42.109Z,9.70
2022-11-17T18:04:15.544Z,9.60
2022-11-17T18:06:47.266Z,9.60
2022-11-17T18:09:18.756Z,9.50
2022-11-17T18:11:49.284Z,9.50
2022-11-17T18:14:20.368Z,9.50
2022-11-17T18:16:48.171Z,9.50
2022-11-17T18:19:17.115Z,9.40
2022-11-17T18:21:45.335Z,9.40
2022-11-17T18:24:13.852Z,9.40
2022-11-17T18:26:41.861Z,9.40
2022-11-17T18:29:14.695Z,9.40
2022-11-17T18:31:46.507Z,9.40
2022-11-17T18:34:16.087Z,9.40
2022-11-17T18:36:43.850Z,9.40
2022-11-17T18:39:11.990Z,9.30
2022-11-17T18:41:39.813Z,9.30
2022-11-17T18:44:07.537Z,9.30
2022-11-17T18:46:35.343Z,9.30
2022-11-17T18:49:04.461Z,9.30
2022-11-17T18:51:34.079Z,9.30
2022-11-17T18:54:02.879Z,9.30
2022-11-17T18:56:34.003Z,9.20
2022-11-17T18:59:02.364Z,9.20
2022-11-17T19:01:31.461Z,9.20
2022-11-17T19:04:01.176Z,9.20
2022-11-17T19:06:30.818Z,9.10
2022-11-17T19:08:59.639Z,9.20
2022-11-17T19:11:28.746Z,9.10
2022-11-17T19:13:56.497Z,9.10
2022-11-17T19:16:25.846Z,9.10
2022-11-17T19:18:55.282Z,9.00
2022-11-17T19:21:25.636Z,9.00
2022-11-17T19:23:58.396Z,9.00
2022-11-17T19:26:27.740Z,9.00
2022-11-17T19:28:56.818Z,9.00
2022-11-17T19:31:25.401Z,9.00
2022-11-17T19:33:54.002Z,9.00
2022-11-17T19:36:24.959Z,8.90
2022-11-17T19:38:55.764Z,8.90
2022-11-17T19:41:25.292Z,8.90
2022-11-17T19:43:54.774Z,8.90
2022-11-17T19:46:23.758Z,8.90
2022-11-17T19:48:51.826Z,8.80
2022-11-17T19:51:21.848Z,8.80
2022-11-17T19:53:50.449Z,8.80
2022-11-17T19:56:20.624Z,8.80
2022-11-17T19:58:49.666Z,8.70
2022-11-17T20:01:19.061Z,8.70
2022-11-17T20:03:47.345Z,8.70
2022-11-17T20:06:18.083Z,8.70
2022-11-17T20:08:46.714Z,8.70
2022-11-17T20:11:16.828Z,8.70
2022-11-17T20:13:45.918Z,8.70
2022-11-17T20:16:15.599Z,8.70
2022-11-17T20:18:44.578Z,8.70
2022-11-17T20:21:13.771Z,8.80
2022-11-17T20:23:41.747Z,8.80
2022-11-17T20:26:12.579Z,8.80
2022-11-17T20:28:40.529Z,8.80
2022-11-17T20:31:10.726Z,8.80
2022-11-17T20:33:39.120Z,8.80
2022-11-17T20:36:08.563Z,8.80
2022-11-17T20:38:36.809Z,8.80
2022-11-17T20:41:05.495Z,8.80
2022-11-17T20:43:33.975Z,8.80
2022-11-17T20:46:02.684Z,8.80
2022-11-17T20:48:33.911Z,8.80
2022-11-17T20:51:03.026Z,8.80
2022-11-17T20:53:30.819Z,8.80
2022-11-17T20:55:59.462Z,8.80
2022-11-17T20:58:28.388Z,8.80
2022-11-17T21:00:56.529Z,8.80
2022-11-17T21:03:25.068Z,8.80
2022-11-17T21:05:59.608Z,8.80
2022-11-17T21:08:28.775Z,8.90
2022-11-17T21:10:56.976Z,8.80
2022-11-17T21:13:25.211Z,8.80
2022-11-17T21:16:07.376Z,8.90
2022-11-17T21:18:35.770Z,8.80
2022-11-17T21:21:08.729Z,8.90
2022-11-17T21:23:37.127Z,8.80
2022-11-17T21:26:05.622Z,8.80
2022-11-17T21:28:33.458Z,8.80
2022-11-17T21:31:08.928Z,8.80
2022-11-17T21:33:36.976Z,8.80
2022-11-17T21:36:08.543Z,8.80
2022-11-17T21:38:36.755Z,8.80
2022-11-17T21:41:05.635Z,8.80
2022-11-17T21:43:33.429Z,8.70
2022-11-17T21:46:05.076Z,8.70
2022-11-17T21:48:32.816Z,8.70
2022-11-17T21:51:00.726Z,8.70
2022-11-17T21:53:30.720Z,8.60
2022-11-17T21:56:02.134Z,8.70
2022-11-17T21:58:30.185Z,8.60
2022-11-17T22:00:58.527Z,8.60
2022-11-17T22:03:27.704Z,8.60
2022-11-17T22:06:01.040Z,8.50
2022-11-17T22:08:31.190Z,8.50
2022-11-17T22:11:03.312Z,8.50
2022-11-17T22:13:31.007Z,8.50
2022-11-17T22:16:03.913Z,8.40
2022-11-17T22:18:31.812Z,8.40
2022-11-17T22:20:59.713Z,8.40
2022-11-17T22:23:28.446Z,8.30
2022-11-17T22:25:59.486Z,8.30
2022-11-17T22:28:27.912Z,8.30
2022-11-17T22:30:56.247Z,8.30
2022-11-17T22:33:24.379Z,8.20
2022-11-17T22:35:52.610Z,8.20
2022-11-17T22:38:20.506Z,8.20
2022-11-17T22:40:48.453Z,8.20
2022-11-17T22:43:17.489Z,8.10
2022-11-17T22:45:45.232Z,8.10
2022-11-17T22:48:12.948Z,8.10
2022-11-17T22:50:40.647Z,8.10
2022-11-17T22:53:08.372Z,8.00
2022-11-17T22:55:36.327Z,8.00
2022-11-17T22:58:04.239Z,8.00
2022-11-17T23:00:33.352Z,8.00
2022-11-17T23:03:01.147Z,8.00
2022-11-17T23:05:28.925Z,8.00
2022-11-17T23:07:56.651Z,8.00
2022-11-17T23:10:24.368Z,8.00
2022-11-17T23:12:52.816Z,8.00
2022-11-17T23:15:20.964Z,8.00
2022-11-17T23:17:50.052Z,7.90
2022-11-17T23:20:18.243Z,7.90
2022-11-17T23:22:45.972Z,7.90
2022-11-17T23:25:13.692Z,7.90
2022-11-17T23:27:41.486Z,7.90
2022-11-17T23:30:10.129Z,7.90
2022-11-17T23:32:37.872Z,7.80
2022-11-17T23:35:07.920Z,7.80
2022-11-17T23:37:35.645Z,7.80
2022-11-17T23:40:03.444Z,7.80
2022-11-17T23:42:32.606Z,7.80
2022-11-17T23:45:01.095Z,7.80
2022-11-17T23:47:28.867Z,7.80
2022-11-17T23:49:56.568Z,7.80
2022-11-17T23:52:25.603Z,7.80
2022-11-17T23:54:53.302Z,7.80
2022-11-17T23:57:21.059Z,7.80
2022-11-17T23:59:48.854Z,7.80
